Pagrindinis puslapis
METAR-TAF:

METAR-TAF

Oro uostai :

Ulan Udė, Rusija

platuma: 51-50N, ilguma: 107-36E, Aukštis: 510 m

Dabartinis oras

Ataskaita buvo paskelbta 35 minutes, ne 17:30 UTC
Vėjas 4 kt iš Vakarų, svyruoja nuo Vakarų ir Šiaurės Vakarų
Temperatūra -13°C
Drėgmė 72%
Slėgis 1034 hPa
Matomumas 10 km arba daugiau

METAR: UIUU 271730Z 28002MPS 260V320 9999 NSC M13/M17 Q1034 R26/820550 NOSIG RMK QFE730/0974

Laikas: 02:05 (18:05 UTC)

Prognozė

Ataskaita buvo paskelbta 1 valandą ir 5 minutes, ne 17:00 UTC
Prognozė galioja nuo 27 metu 18 UTC su 28 metu 18 UTC
Vėjas 6 kt iš Vakarų/Šiaurės Vakarų su gūsio iki 16 kt
Matomumas 10 km arba daugiau
Išsisklaidę debesys ne aukštis 4000 ft, Liūtiniai kamuoliniai debesys.

TAF: UIUU 271700Z 2718/2818 29003G08MPS 9999 SCT040CB

Orai ataskaitas ir orų prognozės (METAR, TAF).

turimą stotys yra geltonos ir raudonos taškus žemėlapyje.

Perkelti pele per norėdami pamatyti stoties vardą.

Tada spustelėkite, norėdami matyti oro stebėjimo ir prognozės.

Norėdami pakeisti žemėlapį: spustelėkite ant žalios mygtukų su juodo kryžiaus žemyn,; žalią mygtuką su brūkšneliu, jei norite nutolinti; arba žalių rodyklių gretimoms žemėlapius.


METAR-TAF: